sensor_id;sensor_type;location;lat;lon;timestamp;pressure;altitude;pressure_sealevel;temperature;humidity
59315;BME280;46521;50.160;20.802;2024-01-10T00:07:29;101608.96;;;-17.15;65.44
59315;BME280;46521;50.160;20.802;2024-01-10T00:17:31;101603.84;;;-17.16;65.98
59315;BME280;46521;50.160;20.802;2024-01-10T00:27:33;101596.52;;;-17.09;65.90
59315;BME280;46521;50.160;20.802;2024-01-10T00:37:34;101600.79;;;-17.08;66.08
59315;BME280;46521;50.160;20.802;2024-01-10T00:47:36;101588.72;;;-17.15;65.68
59315;BME280;46521;50.160;20.802;2024-01-10T00:57:38;101568.11;;;-17.26;65.20
59315;BME280;46521;50.160;20.802;2024-01-10T01:07:39;101577.64;;;-17.18;65.38
59315;BME280;46521;50.160;20.802;2024-01-10T01:17:41;101579.59;;;-17.11;65.61
59315;BME280;46521;50.160;20.802;2024-01-10T01:27:43;101578.50;;;-17.18;65.26
59315;BME280;46521;50.160;20.802;2024-01-10T01:37:44;101578.97;;;-17.04;65.75
59315;BME280;46521;50.160;20.802;2024-01-10T01:47:46;101567.06;;;-17.07;64.98
59315;BME280;46521;50.160;20.802;2024-01-10T01:57:48;101552.72;;;-17.32;65.28
59315;BME280;46521;50.160;20.802;2024-01-10T02:07:49;101549.45;;;-17.29;64.70
59315;BME280;46521;50.160;20.802;2024-01-10T02:17:51;101556.22;;;-17.52;64.59
59315;BME280;46521;50.160;20.802;2024-01-10T02:27:52;101571.55;;;-17.72;64.54
59315;BME280;46521;50.160;20.802;2024-01-10T02:37:54;101552.23;;;-17.70;64.72
59315;BME280;46521;50.160;20.802;2024-01-10T02:47:55;101555.55;;;-17.71;64.78
59315;BME280;46521;50.160;20.802;2024-01-10T02:57:57;101524.09;;;-17.79;65.51
59315;BME280;46521;50.160;20.802;2024-01-10T03:07:58;101521.14;;;-17.91;65.16
59315;BME280;46521;50.160;20.802;2024-01-10T03:18:02;101534.03;;;-17.84;65.26
59315;BME280;46521;50.160;20.802;2024-01-10T03:28:03;101527.22;;;-17.86;65.10
59315;BME280;46521;50.160;20.802;2024-01-10T03:38:05;101523.86;;;-17.85;65.72
59315;BME280;46521;50.160;20.802;2024-01-10T03:48:07;101526.39;;;-17.85;65.37
59315;BME280;46521;50.160;20.802;2024-01-10T03:58:08;101505.60;;;-17.78;65.69
59315;BME280;46521;50.160;20.802;2024-01-10T04:08:09;101507.66;;;-17.92;64.72
59315;BME280;46521;50.160;20.802;2024-01-10T04:18:11;101510.59;;;-18.04;64.50
59315;BME280;46521;50.160;20.802;2024-01-10T04:28:12;101523.58;;;-18.17;64.68
59315;BME280;46521;50.160;20.802;2024-01-10T04:38:14;101512.22;;;-18.28;64.97
59315;BME280;46521;50.160;20.802;2024-01-10T04:48:15;101501.17;;;-18.53;64.96
59315;BME280;46521;50.160;20.802;2024-01-10T04:58:17;101494.33;;;-18.56;65.16
59315;BME280;46521;50.160;20.802;2024-01-10T05:08:19;101514.39;;;-18.38;65.21
59315;BME280;46521;50.160;20.802;2024-01-10T05:18:21;101499.59;;;-18.28;65.23
59315;BME280;46521;50.160;20.802;2024-01-10T05:28:23;101494.25;;;-18.36;64.90
59315;BME280;46521;50.160;20.802;2024-01-10T05:38:24;101502.80;;;-18.33;65.32
59315;BME280;46521;50.160;20.802;2024-01-10T05:48:26;101503.44;;;-18.16;64.87
59315;BME280;46521;50.160;20.802;2024-01-10T05:58:27;101520.94;;;-18.20;65.09
59315;BME280;46521;50.160;20.802;2024-01-10T06:08:29;101524.14;;;-18.24;65.03
59315;BME280;46521;50.160;20.802;2024-01-10T06:18:30;101516.97;;;-18.13;65.00
59315;BME280;46521;50.160;20.802;2024-01-10T06:28:32;101538.62;;;-18.20;65.04
59315;BME280;46521;50.160;20.802;2024-01-10T06:38:33;101520.88;;;-18.22;65.09
59315;BME280;46521;50.160;20.802;2024-01-10T06:48:35;101528.95;;;-18.30;65.25
59315;BME280;46521;50.160;20.802;2024-01-10T06:58:36;101529.54;;;-18.15;64.99
59315;BME280;46521;50.160;20.802;2024-01-10T07:08:38;101526.95;;;-18.17;65.13
59315;BME280;46521;50.160;20.802;2024-01-10T07:18:39;101515.66;;;-18.26;65.17
59315;BME280;46521;50.160;20.802;2024-01-10T07:28:41;101517.14;;;-18.09;65.68
59315;BME280;46521;50.160;20.802;2024-01-10T07:38:43;101519.75;;;-17.83;65.88
59315;BME280;46521;50.160;20.802;2024-01-10T07:48:44;101520.60;;;-17.58;66.13
59315;BME280;46521;50.160;20.802;2024-01-10T07:58:45;101492.23;;;-17.26;65.85
59315;BME280;46521;50.160;20.802;2024-01-10T08:08:50;101498.67;;;-16.82;65.81
59315;BME280;46521;50.160;20.802;2024-01-10T08:18:51;101478.97;;;-16.37;66.41
59315;BME280;46521;50.160;20.802;2024-01-10T08:28:52;101483.78;;;-15.87;66.74
59315;BME280;46521;50.160;20.802;2024-01-10T08:38:54;101486.55;;;-15.46;66.70
59315;BME280;46521;50.160;20.802;2024-01-10T08:48:56;101496.89;;;-15.05;66.13
59315;BME280;46521;50.160;20.802;2024-01-10T08:58:57;101493.56;;;-14.67;66.93
59315;BME280;46521;50.160;20.802;2024-01-10T09:08:59;101498.84;;;-14.20;67.08
59315;BME280;46521;50.160;20.802;2024-01-10T09:19:00;101493.30;;;-13.57;67.01
59315;BME280;46521;50.160;20.802;2024-01-10T09:29:02;101492.97;;;-12.78;67.35
59315;BME280;46521;50.160;20.802;2024-01-10T09:39:03;101477.88;;;-12.05;67.33
59315;BME280;46521;50.160;20.802;2024-01-10T09:49:07;101483.84;;;-11.25;67.86
59315;BME280;46521;50.160;20.802;2024-01-10T09:59:10;101454.33;;;-10.90;66.28
59315;BME280;46521;50.160;20.802;2024-01-10T10:09:12;101439.31;;;-10.39;66.18
59315;BME280;46521;50.160;20.802;2024-01-10T10:19:22;101439.39;;;-10.19;67.08
59315;BME280;46521;50.160;20.802;2024-01-10T10:29:25;101430.97;;;-9.97;66.89
59315;BME280;46521;50.160;20.802;2024-01-10T10:39:27;101436.97;;;-9.87;66.52
59315;BME280;46521;50.160;20.802;2024-01-10T10:49:29;101421.70;;;-9.56;67.21
59315;BME280;46521;50.160;20.802;2024-01-10T10:59:33;101400.31;;;-9.66;66.41
59315;BME280;46521;50.160;20.802;2024-01-10T11:09:37;101403.76;;;-9.61;67.01
59315;BME280;46521;50.160;20.802;2024-01-10T11:20:09;101399.52;;;-9.42;66.79
59315;BME280;46521;50.160;20.802;2024-01-10T11:30:35;101395.24;;;-9.29;66.50
59315;BME280;46521;50.160;20.802;2024-01-10T11:40:48;101379.88;;;-9.26;66.82
59315;BME280;46521;50.160;20.802;2024-01-10T11:50:50;101364.50;;;-9.35;66.89
59315;BME280;46521;50.160;20.802;2024-01-10T12:00:51;101366.22;;;-9.25;66.65
59315;BME280;46521;50.160;20.802;2024-01-10T12:10:53;101353.36;;;-9.11;67.01
59315;BME280;46521;50.160;20.802;2024-01-10T12:20:55;101342.25;;;-8.96;66.80
59315;BME280;46521;50.160;20.802;2024-01-10T12:30:57;101332.83;;;-8.88;66.64
59315;BME280;46521;50.160;20.802;2024-01-10T12:40:58;101332.84;;;-8.92;66.91
59315;BME280;46521;50.160;20.802;2024-01-10T12:51:00;101315.77;;;-8.98;66.99
59315;BME280;46521;50.160;20.802;2024-01-10T13:01:04;101306.41;;;-9.27;66.45
59315;BME280;46521;50.160;20.802;2024-01-10T13:11:06;101306.41;;;-9.39;66.81
59315;BME280;46521;50.160;20.802;2024-01-10T13:21:10;101274.83;;;-9.44;66.88
59315;BME280;46521;50.160;20.802;2024-01-10T13:31:12;101276.55;;;-9.46;67.38
59315;BME280;46521;50.160;20.802;2024-01-10T13:41:13;101279.11;;;-9.43;67.22
59315;BME280;46521;50.160;20.802;2024-01-10T13:51:16;101267.13;;;-9.32;67.41
59315;BME280;46521;50.160;20.802;2024-01-10T14:01:17;101273.09;;;-9.24;67.66
59315;BME280;46521;50.160;20.802;2024-01-10T14:11:19;101262.86;;;-9.45;67.26
59315;BME280;46521;50.160;20.802;2024-01-10T14:21:21;101263.74;;;-9.62;67.31
59315;BME280;46521;50.160;20.802;2024-01-10T14:31:23;101246.66;;;-9.76;66.54
59315;BME280;46521;50.160;20.802;2024-01-10T14:41:25;101261.16;;;-9.97;67.73
59315;BME280;46521;50.160;20.802;2024-01-10T14:51:27;101262.84;;;-10.15;66.99
59315;BME280;46521;50.160;20.802;2024-01-10T15:01:28;101258.57;;;-10.29;66.53
59315;BME280;46521;50.160;20.802;2024-01-10T15:11:30;101232.10;;;-10.59;66.96
59315;BME280;46521;50.160;20.802;2024-01-10T15:21:33;101250.66;;;-11.00;67.10
59315;BME280;46521;50.160;20.802;2024-01-10T15:31:36;101240.34;;;-11.24;68.34
59315;BME280;46521;50.160;20.802;2024-01-10T15:41:38;101233.40;;;-11.43;67.44
59315;BME280;46521;50.160;20.802;2024-01-10T15:51:40;101216.26;;;-11.64;67.79
59315;BME280;46521;50.160;20.802;2024-01-10T16:01:42;101208.42;;;-11.92;67.31
59315;BME280;46521;50.160;20.802;2024-01-10T16:11:43;101214.29;;;-12.01;67.72
59315;BME280;46521;50.160;20.802;2024-01-10T16:21:45;101217.64;;;-12.09;68.49
59315;BME280;46521;50.160;20.802;2024-01-10T16:31:47;101214.16;;;-12.19;68.05
59315;BME280;46521;50.160;20.802;2024-01-10T16:41:48;101202.18;;;-12.26;68.69
59315;BME280;46521;50.160;20.802;2024-01-10T16:51:50;101204.53;;;-12.46;67.75
59315;BME280;46521;50.160;20.802;2024-01-10T17:01:52;101195.92;;;-12.58;67.67
59315;BME280;46521;50.160;20.802;2024-01-10T17:11:53;101183.91;;;-12.68;67.80
59315;BME280;46521;50.160;20.802;2024-01-10T17:21:55;101182.09;;;-12.81;67.99
59315;BME280;46521;50.160;20.802;2024-01-10T17:31:56;101172.64;;;-12.90;68.86
59315;BME280;46521;50.160;20.802;2024-01-10T17:41:58;101163.26;;;-12.96;68.84
59315;BME280;46521;50.160;20.802;2024-01-10T17:51:59;101153.83;;;-13.03;69.32
59315;BME280;46521;50.160;20.802;2024-01-10T18:02:01;101145.27;;;-13.10;69.26
59315;BME280;46521;50.160;20.802;2024-01-10T18:12:03;101127.44;;;-13.10;69.34
59315;BME280;46521;50.160;20.802;2024-01-10T18:22:05;101110.46;;;-13.09;69.92
59315;BME280;46521;50.160;20.802;2024-01-10T18:32:06;101117.24;;;-13.11;69.50
59315;BME280;46521;50.160;20.802;2024-01-10T18:42:08;101117.24;;;-13.11;69.46
59315;BME280;46521;50.160;20.802;2024-01-10T18:52:10;101103.65;;;-13.10;69.96
59315;BME280;46521;50.160;20.802;2024-01-10T19:02:11;101097.68;;;-13.14;69.72
59315;BME280;46521;50.160;20.802;2024-01-10T19:12:14;101091.61;;;-13.27;69.96
59315;BME280;46521;50.160;20.802;2024-01-10T19:22:15;101083.06;;;-13.35;70.20
59315;BME280;46521;50.160;20.802;2024-01-10T19:32:18;101070.22;;;-13.46;69.79
59315;BME280;46521;50.160;20.802;2024-01-10T19:42:20;101058.24;;;-13.53;69.96
59315;BME280;46521;50.160;20.802;2024-01-10T19:52:21;101066.77;;;-13.51;70.39
59315;BME280;46521;50.160;20.802;2024-01-10T20:02:23;101053.31;;;-13.39;70.52
59315;BME280;46521;50.160;20.802;2024-01-10T20:12:25;101049.98;;;-13.35;70.51
59315;BME280;46521;50.160;20.802;2024-01-10T20:22:27;101054.21;;;-13.34;70.09
59315;BME280;46521;50.160;20.802;2024-01-10T20:32:28;101060.95;;;-13.39;70.32
59315;BME280;46521;50.160;20.802;2024-01-10T20:42:30;101058.26;;;-13.51;70.09
59315;BME280;46521;50.160;20.802;2024-01-10T20:52:32;101058.26;;;-13.51;70.18
59315;BME280;46521;50.160;20.802;2024-01-10T21:02:33;101056.61;;;-13.49;69.58
59315;BME280;46521;50.160;20.802;2024-01-10T21:12:36;101045.68;;;-13.39;71.35
59315;BME280;46521;50.160;20.802;2024-01-10T21:22:38;101029.66;;;-13.27;70.44
59315;BME280;46521;50.160;20.802;2024-01-10T21:32:39;101022.91;;;-13.24;70.80
59315;BME280;46521;50.160;20.802;2024-01-10T21:42:41;101020.30;;;-13.30;70.81
59315;BME280;46521;50.160;20.802;2024-01-10T21:52:42;101027.03;;;-13.38;70.25
59315;BME280;46521;50.160;20.802;2024-01-10T22:02:44;101030.44;;;-13.36;70.10
59315;BME280;46521;50.160;20.802;2024-01-10T22:12:46;101026.17;;;-13.37;70.02
59315;BME280;46521;50.160;20.802;2024-01-10T22:22:47;101005.70;;;-13.48;70.55
59315;BME280;46521;50.160;20.802;2024-01-10T22:32:49;100996.46;;;-13.41;70.61
59315;BME280;46521;50.160;20.802;2024-01-10T22:42:50;100990.52;;;-13.40;70.57
59315;BME280;46521;50.160;20.802;2024-01-10T22:52:53;100999.09;;;-13.30;70.63
59315;BME280;46521;50.160;20.802;2024-01-10T23:02:54;100980.42;;;-13.28;71.45
59315;BME280;46521;50.160;20.802;2024-01-10T23:12:56;100980.48;;;-13.21;71.42
59315;BME280;46521;50.160;20.802;2024-01-10T23:22:57;100966.89;;;-13.24;71.51
59315;BME280;46521;50.160;20.802;2024-01-10T23:32:59;100956.67;;;-13.28;71.89
59315;BME280;46521;50.160;20.802;2024-01-10T23:43:01;100927.02;;;-13.21;71.63
59315;BME280;46521;50.160;20.802;2024-01-10T23:53:02;100895.55;;;-13.31;71.40
